Terminal Aerodrome Forecast
Issued by NWS Bismarck, ND

Home | Current Version | Previous Version | Graphics & Text | Print | Product List | Glossary On
Versions: 1 2 3 4 5 6 7 8 9 10 11 12 13 14 15 16 17 18 19 20 21 22 23 24 25 26 27
000
FTUS43 KBIS 010719 AAA
TAFISN
TAF AMD
KISN 010719Z 0107/0206 01007KT 6SM -SN BR BKN035
     FM010900 33007KT P6SM OVC060
     FM011300 28006KT P6SM BKN035
     FM011600 19007KT P6SM BKN025
     FM012100 19007KT 3SM -SN BR OVC015
     FM020000 VRB05KT 2SM -SN BR OVC010
     FM020400 32008KT P6SM -SN OVC035=

USA.gov is the U.S. government's official web portal to all federal, state and local government web resources and services.